createdAt,value
2018-08-11T00:00:24.862Z,20.50
2018-08-11T00:01:24.862Z,20.42
2018-08-11T00:02:24.865Z,20.38
2018-08-11T00:03:24.867Z,20.42
2018-08-11T00:04:24.910Z,20.46
2018-08-11T00:05:24.858Z,20.42
2018-08-11T00:06:24.854Z,20.46
2018-08-11T00:07:24.854Z,20.53
2018-08-11T00:08:24.855Z,20.37
2018-08-11T00:09:24.852Z,20.41
2018-08-11T00:10:24.846Z,20.46
2018-08-11T00:11:24.845Z,20.41
2018-08-11T00:12:24.843Z,20.46
2018-08-11T00:13:24.842Z,20.48
2018-08-11T00:14:24.845Z,20.41
2018-08-11T00:15:24.845Z,20.40
2018-08-11T00:16:24.842Z,20.50
2018-08-11T00:17:24.841Z,20.51
2018-08-11T00:18:24.835Z,20.51
2018-08-11T00:19:24.833Z,20.56
2018-08-11T00:20:24.831Z,20.51
2018-08-11T00:21:24.833Z,20.51
2018-08-11T00:22:24.832Z,20.44
2018-08-11T00:23:24.831Z,20.51
2018-08-11T00:24:24.826Z,20.54
2018-08-11T00:25:24.824Z,20.56
2018-08-11T00:26:24.827Z,20.53
2018-08-11T00:27:24.825Z,20.50
2018-08-11T00:28:24.825Z,20.50
2018-08-11T00:29:24.823Z,20.60
2018-08-11T00:30:24.818Z,20.66
2018-08-11T00:31:24.816Z,20.61
2018-08-11T00:32:24.813Z,20.56
2018-08-11T00:33:24.812Z,20.66
2018-08-11T00:34:24.817Z,20.54
2018-08-11T00:35:24.816Z,20.50
2018-08-11T00:36:24.827Z,20.53
2018-08-11T00:37:24.811Z,20.48
2018-08-11T00:38:24.806Z,20.48
2018-08-11T00:39:24.805Z,20.44
2018-08-11T00:40:24.807Z,20.50
2018-08-11T00:41:24.806Z,20.44
2018-08-11T00:42:24.800Z,20.53
2018-08-11T00:43:24.799Z,20.46
2018-08-11T00:44:24.798Z,20.50
2018-08-11T00:45:24.796Z,20.31
2018-08-11T00:46:24.799Z,20.35
2018-08-11T00:47:24.799Z,20.20
2018-08-11T00:48:24.797Z,20.22
2018-08-11T00:49:24.822Z,20.17
2018-08-11T00:50:24.790Z,19.97
2018-08-11T00:51:24.788Z,19.89
2018-08-11T00:52:24.789Z,19.76
2018-08-11T00:53:24.784Z,19.82
2018-08-11T00:54:24.788Z,19.68
2018-08-11T00:55:24.787Z,19.68
2018-08-11T00:56:24.780Z,19.60
2018-08-11T00:57:24.780Z,19.62
2018-08-11T00:58:24.782Z,19.65
2018-08-11T00:59:24.781Z,19.49
2018-08-11T01:00:24.779Z,19.47
2018-08-11T01:01:24.777Z,19.47
2018-08-11T01:02:24.828Z,19.39
2018-08-11T01:03:24.771Z,19.30
2018-08-11T01:04:24.768Z,19.30
2018-08-11T01:05:24.766Z,19.27
2018-08-11T01:06:24.769Z,19.17
2018-08-11T01:07:24.768Z,19.07
2018-08-11T01:08:24.769Z,19.05
2018-08-11T01:09:24.765Z,18.97
2018-08-11T01:10:24.758Z,18.93
2018-08-11T01:11:24.760Z,18.87
2018-08-11T01:12:24.760Z,18.79
2018-08-11T01:13:24.758Z,18.83
2018-08-11T01:14:24.751Z,18.79
2018-08-11T01:15:24.749Z,18.74
2018-08-11T01:16:24.750Z,18.66
2018-08-11T01:17:24.747Z,18.59
2018-08-11T01:18:24.748Z,18.62
2018-08-11T01:19:24.749Z,18.54
2018-08-11T01:20:24.743Z,18.49
2018-08-11T01:21:24.743Z,18.39
2018-08-11T01:22:24.737Z,18.49
2018-08-11T01:23:24.735Z,18.41
2018-08-11T01:24:24.736Z,18.38
2018-08-11T01:25:24.730Z,18.35
2018-08-11T01:26:24.738Z,18.47
2018-08-11T01:27:24.733Z,18.31
2018-08-11T01:28:24.726Z,18.26
2018-08-11T01:29:24.722Z,18.25
2018-08-11T01:30:24.725Z,18.25
2018-08-11T01:31:24.723Z,18.17
2018-08-11T01:32:24.720Z,18.23
2018-08-11T01:33:24.720Z,18.13
2018-08-11T01:34:24.715Z,18.20
2018-08-11T01:35:24.712Z,18.14
2018-08-11T01:36:24.707Z,18.19
2018-08-11T01:37:24.705Z,18.11
2018-08-11T01:38:24.707Z,18.07
2018-08-11T01:39:24.706Z,17.95
2018-08-11T01:40:24.704Z,17.87
2018-08-11T01:41:24.702Z,18.05
2018-08-11T01:42:24.699Z,17.98
2018-08-11T01:43:24.693Z,18.11
2018-08-11T01:44:24.812Z,18.13
2018-08-11T01:45:24.694Z,18.13
2018-08-11T01:46:24.686Z,18.21
2018-08-11T01:47:24.684Z,18.14
2018-08-11T01:48:24.681Z,18.21
2018-08-11T01:49:24.682Z,18.17
2018-08-11T01:50:24.681Z,18.17
2018-08-11T01:51:24.681Z,18.28
2018-08-11T01:52:24.680Z,18.29
2018-08-11T01:53:24.674Z,18.31
2018-08-11T01:54:24.709Z,18.31
2018-08-11T01:55:24.666Z,18.35
2018-08-11T01:56:24.664Z,18.35
2018-08-11T01:57:24.662Z,18.31
2018-08-11T01:58:24.666Z,18.38
2018-08-11T01:59:24.663Z,18.34
2018-08-11T02:00:24.655Z,18.41
2018-08-11T02:01:24.653Z,18.34
2018-08-11T02:02:24.661Z,18.23
2018-08-11T02:03:24.655Z,18.01
2018-08-11T02:04:24.652Z,17.83
2018-08-11T02:05:24.651Z,17.84
2018-08-11T02:06:24.644Z,17.80
2018-08-11T02:07:24.642Z,17.55
2018-08-11T02:08:24.638Z,17.55
2018-08-11T02:09:24.636Z,17.33
2018-08-11T02:10:24.639Z,17.17
2018-08-11T02:11:24.639Z,17.06
2018-08-11T02:12:24.633Z,17.09
2018-08-11T02:13:24.632Z,16.96
2018-08-11T02:14:24.626Z,16.92
2018-08-11T02:15:24.623Z,16.91
2018-08-11T02:16:24.625Z,16.92
2018-08-11T02:17:24.622Z,16.91
2018-08-11T02:18:24.617Z,16.92
2018-08-11T02:19:24.614Z,16.95
2018-08-11T02:20:24.612Z,17.07
2018-08-11T02:21:24.609Z,16.91
2018-08-11T02:22:24.612Z,17.06
2018-08-11T02:23:24.610Z,17.09
2018-08-11T02:24:24.606Z,17.14
2018-08-11T02:25:24.604Z,17.15
2018-08-11T02:26:24.596Z,17.20
2018-08-11T02:27:24.595Z,17.20
2018-08-11T02:28:24.591Z,17.27
2018-08-11T02:29:24.591Z,17.27
2018-08-11T02:30:24.591Z,17.21
2018-08-11T02:31:24.589Z,17.25
2018-08-11T02:32:24.582Z,17.33
2018-08-11T02:33:24.579Z,17.36
2018-08-11T02:34:24.661Z,17.39
2018-08-11T02:35:24.578Z,17.43
2018-08-11T02:36:24.576Z,17.49
2018-08-11T02:37:24.574Z,17.51
2018-08-11T02:38:24.572Z,17.49
2018-08-11T02:39:24.564Z,17.49
2018-08-11T02:40:24.562Z,17.51
2018-08-11T02:41:24.559Z,17.49
2018-08-11T02:42:24.561Z,17.49
2018-08-11T02:43:24.559Z,17.40
2018-08-11T02:44:24.555Z,17.42
2018-08-11T02:45:24.556Z,17.49
2018-08-11T02:46:24.545Z,17.58
2018-08-11T02:47:24.543Z,17.51
2018-08-11T02:48:24.544Z,17.57
2018-08-11T02:49:24.541Z,17.51
2018-08-11T02:50:24.537Z,17.54
2018-08-11T02:51:24.533Z,17.54
2018-08-11T02:52:24.531Z,17.53
2018-08-11T02:53:24.530Z,17.53
2018-08-11T02:54:24.529Z,17.39
2018-08-11T02:55:24.528Z,17.39
2018-08-11T02:56:24.523Z,17.36
2018-08-11T02:57:24.522Z,17.32
2018-08-11T02:58:24.514Z,17.33
2018-08-11T02:59:24.511Z,17.32
2018-08-11T03:00:24.508Z,17.28
2018-08-11T03:01:24.506Z,17.35
2018-08-11T03:02:24.570Z,17.28
2018-08-11T03:03:24.505Z,17.32
2018-08-11T03:04:24.497Z,17.30
2018-08-11T03:05:24.495Z,17.30
2018-08-11T03:06:24.496Z,17.43
2018-08-11T03:07:24.493Z,17.35
2018-08-11T03:08:24.491Z,17.33
2018-08-11T03:09:24.489Z,17.32
2018-08-11T03:10:24.482Z,17.22
2018-08-11T03:11:24.478Z,17.32
2018-08-11T03:12:24.474Z,17.21
2018-08-11T03:13:24.472Z,17.22
2018-08-11T03:14:24.473Z,17.27
2018-08-11T03:15:24.510Z,17.22
2018-08-11T03:16:24.475Z,17.21
2018-08-11T03:17:24.464Z,17.17
2018-08-11T03:18:24.458Z,17.10
2018-08-11T03:19:24.460Z,17.05
2018-08-11T03:20:24.458Z,17.06
2018-08-11T03:21:24.454Z,17.00
2018-08-11T03:22:24.446Z,16.95
2018-08-11T03:23:24.444Z,16.92
2018-08-11T03:24:24.438Z,16.95
2018-08-11T03:25:24.436Z,16.92
2018-08-11T03:26:24.440Z,16.95
2018-08-11T03:27:24.434Z,16.91
2018-08-11T03:28:24.430Z,17.02
2018-08-11T03:29:24.429Z,16.87
2018-08-11T03:30:24.421Z,16.87
2018-08-11T03:31:24.420Z,16.95
2018-08-11T03:32:24.413Z,16.91
2018-08-11T03:33:24.411Z,16.85
2018-08-11T03:34:24.415Z,16.98
2018-08-11T03:35:24.411Z,17.07
2018-08-11T03:36:24.401Z,16.98
2018-08-11T03:37:24.400Z,17.00
2018-08-11T03:38:24.401Z,17.02
2018-08-11T03:39:24.398Z,17.00
2018-08-11T03:40:24.393Z,17.10
2018-08-11T03:41:24.390Z,16.95
2018-08-11T03:42:24.387Z,16.92
2018-08-11T03:43:24.380Z,16.81
2018-08-11T03:44:24.379Z,16.96
2018-08-11T03:45:24.374Z,16.99
2018-08-11T03:46:24.375Z,16.98
2018-08-11T03:47:24.372Z,16.95
2018-08-11T03:48:24.369Z,17.02
2018-08-11T03:49:24.366Z,16.95
2018-08-11T03:50:24.359Z,16.91
2018-08-11T03:51:24.356Z,16.88
2018-08-11T03:52:24.387Z,16.85
2018-08-11T03:53:24.354Z,16.84
2018-08-11T03:54:24.347Z,16.80
2018-08-11T03:55:24.343Z,16.87
2018-08-11T03:56:24.338Z,16.82
2018-08-11T03:57:24.336Z,16.80
2018-08-11T03:58:24.337Z,16.77
2018-08-11T03:59:24.335Z,16.70
2018-08-11T04:00:24.331Z,16.78
2018-08-11T04:01:24.328Z,16.77
2018-08-11T04:02:24.321Z,16.81
2018-08-11T04:03:24.319Z,16.70
2018-08-11T04:04:24.317Z,16.80
2018-08-11T04:05:24.312Z,16.80
2018-08-11T04:06:24.313Z,16.82
2018-08-11T04:07:24.312Z,16.80
2018-08-11T04:08:24.302Z,16.88
2018-08-11T04:09:24.302Z,16.95
2018-08-11T04:10:24.303Z,16.99
2018-08-11T04:11:24.299Z,17.06
2018-08-11T04:12:24.294Z,17.09
2018-08-11T04:13:24.291Z,17.10
2018-08-11T04:14:24.284Z,17.15
2018-08-11T04:15:24.282Z,17.14
2018-08-11T04:16:24.278Z,17.17
2018-08-11T04:17:24.275Z,17.25
2018-08-11T04:18:24.278Z,17.27
2018-08-11T04:19:24.276Z,17.35
2018-08-11T04:20:24.270Z,17.36
2018-08-11T04:21:24.268Z,17.40
2018-08-11T04:22:24.261Z,17.38
2018-08-11T04:23:24.258Z,17.49
2018-08-11T04:24:24.260Z,17.57
2018-08-11T04:25:24.257Z,17.62
2018-08-11T04:26:24.251Z,17.62
2018-08-11T04:27:24.247Z,17.45
2018-08-11T04:28:24.244Z,17.46
2018-08-11T04:29:24.242Z,17.43
2018-08-11T04:30:24.245Z,17.46
2018-08-11T04:31:24.242Z,17.47
2018-08-11T04:32:24.239Z,17.45
2018-08-11T04:33:24.237Z,17.46
2018-08-11T04:34:24.229Z,17.46
2018-08-11T04:35:24.226Z,17.51
2018-08-11T04:36:24.222Z,17.51
2018-08-11T04:37:24.221Z,17.46
2018-08-11T04:38:24.221Z,17.27
2018-08-11T04:39:24.220Z,17.39
2018-08-11T04:40:24.211Z,17.30
2018-08-11T04:41:24.209Z,17.33
2018-08-11T04:42:24.211Z,17.33
2018-08-11T04:43:24.209Z,17.27
2018-08-11T04:44:24.205Z,17.38
2018-08-11T04:45:24.203Z,17.40
2018-08-11T04:46:24.195Z,17.39
2018-08-11T04:47:24.193Z,17.36
2018-08-11T04:48:24.189Z,17.49
2018-08-11T04:49:24.188Z,17.43
2018-08-11T04:50:24.190Z,17.40
2018-08-11T04:51:24.187Z,17.36
2018-08-11T04:52:24.182Z,17.32
2018-08-11T04:53:24.180Z,17.33
2018-08-11T04:54:24.172Z,17.27
2018-08-11T04:55:24.172Z,17.25
2018-08-11T04:56:24.172Z,17.22
2018-08-11T04:57:24.169Z,17.28
2018-08-11T04:58:24.162Z,17.35
2018-08-11T04:59:24.160Z,17.43
2018-08-11T05:00:24.157Z,17.49
2018-08-11T05:01:24.156Z,17.54
2018-08-11T05:02:24.157Z,17.54
2018-08-11T05:03:24.157Z,17.65
2018-08-11T05:04:24.150Z,17.65
2018-08-11T05:05:24.148Z,17.70
2018-08-11T05:06:24.141Z,17.73
2018-08-11T05:07:24.138Z,17.77
2018-08-11T05:08:24.135Z,17.98
2018-08-11T05:09:24.134Z,18.34
2018-08-11T05:10:24.135Z,18.69
2018-08-11T05:11:24.132Z,18.87
2018-08-11T05:12:24.128Z,18.97
2018-08-11T05:13:24.124Z,19.24
2018-08-11T05:14:24.125Z,19.40
2018-08-11T05:15:24.124Z,19.64
2018-08-11T05:16:24.121Z,19.71
2018-08-11T05:17:24.119Z,19.87
2018-08-11T05:18:24.112Z,19.90
2018-08-11T05:19:24.111Z,20.10
2018-08-11T05:20:24.109Z,20.68
2018-08-11T05:21:24.107Z,20.75
2018-08-11T05:22:24.120Z,20.68
2018-08-11T05:23:24.110Z,20.78
2018-08-11T05:24:24.108Z,21.40
2018-08-11T05:25:24.108Z,21.70
2018-08-11T05:26:24.119Z,22.14
2018-08-11T05:27:24.102Z,22.04
2018-08-11T05:28:24.108Z,22.38
2018-08-11T05:29:24.105Z,22.36
2018-08-11T05:30:24.099Z,22.15
2018-08-11T05:31:24.100Z,21.98
2018-08-11T05:32:24.095Z,21.73
2018-08-11T05:33:24.095Z,21.67
2018-08-11T05:34:24.100Z,21.49
2018-08-11T05:35:24.102Z,21.64
2018-08-11T05:36:24.098Z,21.55
2018-08-11T05:37:24.099Z,21.61
2018-08-11T05:38:24.095Z,21.21
2018-08-11T05:39:24.094Z,21.37
2018-08-11T05:40:24.093Z,21.91
2018-08-11T05:41:24.095Z,21.90
2018-08-11T05:42:24.099Z,21.48
2018-08-11T05:43:24.098Z,21.70
2018-08-11T05:44:24.096Z,22.29
2018-08-11T05:45:24.094Z,22.35
2018-08-11T05:46:24.099Z,22.57
2018-08-11T05:47:24.099Z,23.29
2018-08-11T05:48:24.096Z,23.60
2018-08-11T05:49:24.101Z,23.67
2018-08-11T05:50:24.093Z,24.08
2018-08-11T05:51:24.094Z,24.37
2018-08-11T05:52:24.095Z,24.94
2018-08-11T05:53:24.095Z,24.68
2018-08-11T05:54:24.106Z,24.21
2018-08-11T05:55:24.106Z,24.09
2018-08-11T05:56:24.109Z,23.82
2018-08-11T05:57:24.110Z,24.41
2018-08-11T05:58:24.105Z,24.90
2018-08-11T05:59:24.106Z,25.22
2018-08-11T06:00:24.114Z,24.84
2018-08-11T06:01:24.116Z,23.89
2018-08-11T06:02:24.112Z,23.87
2018-08-11T06:03:24.112Z,23.42
2018-08-11T06:04:24.113Z,23.39
2018-08-11T06:05:24.115Z,23.54
2018-08-11T06:06:24.122Z,23.68
2018-08-11T06:07:24.128Z,24.51
2018-08-11T06:08:24.131Z,24.87
2018-08-11T06:09:24.132Z,24.63
2018-08-11T06:10:24.151Z,24.42
2018-08-11T06:11:24.132Z,24.21
2018-08-11T06:12:24.131Z,24.09
2018-08-11T06:13:24.133Z,23.67
2018-08-11T06:14:24.141Z,24.24
2018-08-11T06:15:24.144Z,25.01
2018-08-11T06:16:24.140Z,25.63
2018-08-11T06:17:24.144Z,26.08
2018-08-11T06:18:24.150Z,26.35
2018-08-11T06:19:24.152Z,26.90
2018-08-11T06:20:24.157Z,27.33
2018-08-11T06:21:24.159Z,27.59
2018-08-11T06:22:24.157Z,27.16
2018-08-11T06:23:24.161Z,27.95
2018-08-11T06:24:24.167Z,28.21
2018-08-11T06:25:24.167Z,28.77
2018-08-11T06:26:24.177Z,28.73
2018-08-11T06:27:24.182Z,28.09
2018-08-11T06:28:24.183Z,28.28
2018-08-11T06:29:24.187Z,29.27
2018-08-11T06:30:24.188Z,29.48
2018-08-11T06:31:24.215Z,30.10
2018-08-11T06:32:24.201Z,30.40
2018-08-11T06:33:24.206Z,30.83
2018-08-11T06:34:24.209Z,30.63
2018-08-11T06:35:24.212Z,30.97
2018-08-11T06:36:24.218Z,31.54
2018-08-11T06:37:24.223Z,31.82
2018-08-11T06:38:24.234Z,31.78
2018-08-11T06:39:24.243Z,32.32
2018-08-11T06:40:24.297Z,32.80
2018-08-11T06:41:24.252Z,33.11
2018-08-11T06:42:24.255Z,33.37
2018-08-11T06:43:24.275Z,33.81
2018-08-11T06:44:24.269Z,32.40
2018-08-11T06:45:24.274Z,32.41
2018-08-11T06:46:24.283Z,32.50
2018-08-11T06:47:24.292Z,32.85
2018-08-11T06:48:24.297Z,33.11
2018-08-11T06:49:24.306Z,33.26
2018-08-11T06:50:24.316Z,33.45
2018-08-11T06:51:24.322Z,33.87
2018-08-11T06:52:24.330Z,34.11
2018-08-11T06:53:24.338Z,34.58
2018-08-11T06:54:24.342Z,34.50
2018-08-11T06:55:24.362Z,34.14
2018-08-11T06:56:24.359Z,34.01
2018-08-11T06:57:24.368Z,34.48
2018-08-11T06:58:24.385Z,34.48
2018-08-11T06:59:24.395Z,33.90
2018-08-11T07:00:24.401Z,33.68
2018-08-11T07:01:24.414Z,33.59
2018-08-11T07:02:24.417Z,33.68
2018-08-11T07:03:24.425Z,34.14
2018-08-11T07:04:24.441Z,34.60
2018-08-11T07:05:24.447Z,34.98
2018-08-11T07:06:24.476Z,34.91
2018-08-11T07:07:24.465Z,35.34
2018-08-11T07:08:24.524Z,35.25
2018-08-11T07:09:24.483Z,35.52
2018-08-11T07:10:24.498Z,35.10
2018-08-11T07:11:24.508Z,34.94
2018-08-11T07:12:24.521Z,34.95
2018-08-11T07:13:24.530Z,34.93
2018-08-11T07:14:24.537Z,35.25
2018-08-11T07:15:24.670Z,35.52
2018-08-11T07:16:24.556Z,35.62
2018-08-11T07:17:24.567Z,35.98
2018-08-11T07:18:24.582Z,36.19
2018-08-11T07:19:24.594Z,35.68
2018-08-11T07:20:24.598Z,35.77
2018-08-11T07:21:24.639Z,36.12
2018-08-11T07:22:24.626Z,35.73
2018-08-11T07:23:24.637Z,35.73
2018-08-11T07:24:24.650Z,36.12
2018-08-11T07:25:24.662Z,36.41
2018-08-11T07:26:24.673Z,35.40
2018-08-11T07:27:24.680Z,35.61
2018-08-11T07:28:24.692Z,35.93
2018-08-11T07:29:24.704Z,36.57
2018-08-11T07:30:24.721Z,36.06
2018-08-11T07:31:24.732Z,36.13
2018-08-11T07:32:24.744Z,36.46
2018-08-11T07:33:24.757Z,36.83
2018-08-11T07:34:24.765Z,36.34
2018-08-11T07:35:24.779Z,36.49
2018-08-11T07:36:24.891Z,36.11
2018-08-11T07:37:24.807Z,35.71
2018-08-11T07:38:24.817Z,35.12
2018-08-11T07:39:24.829Z,35.49
2018-08-11T07:40:24.841Z,35.31
2018-08-11T07:41:24.854Z,35.40
2018-08-11T07:42:24.872Z,35.93
2018-08-11T07:43:24.940Z,36.49
2018-08-11T07:44:24.898Z,36.89
2018-08-11T07:45:24.913Z,37.35
2018-08-11T07:46:24.924Z,37.78
2018-08-11T07:47:24.968Z,38.28
2018-08-11T07:48:24.949Z,38.70
2018-08-11T07:49:24.961Z,39.02
2018-08-11T07:50:25.048Z,38.82
2018-08-11T07:51:24.994Z,39.16
2018-08-11T07:52:25.002Z,38.98
2018-08-11T07:53:25.018Z,38.52
2018-08-11T07:54:25.035Z,38.44
2018-08-11T07:55:25.050Z,37.91
2018-08-11T07:56:25.062Z,38.07
2018-08-11T07:57:25.076Z,38.53
2018-08-11T07:58:25.088Z,38.82
2018-08-11T07:59:25.100Z,38.87
2018-08-11T08:00:25.114Z,38.50
2018-08-11T08:01:25.156Z,38.09
2018-08-11T08:02:25.148Z,37.11
2018-08-11T08:03:25.163Z,37.33
2018-08-11T08:04:25.177Z,38.09
2018-08-11T08:05:25.192Z,38.21
2018-08-11T08:06:25.202Z,38.30
2018-08-11T08:07:25.218Z,38.43
2018-08-11T08:08:25.235Z,36.96
2018-08-11T08:09:25.260Z,35.47
2018-08-11T08:10:25.265Z,35.17
2018-08-11T08:11:25.273Z,33.29
2018-08-11T08:12:25.307Z,32.93
2018-08-11T08:13:25.302Z,33.12
2018-08-11T08:14:25.320Z,32.46
2018-08-11T08:15:25.336Z,31.76
2018-08-11T08:16:25.348Z,31.18
2018-08-11T08:17:25.365Z,30.34
2018-08-11T08:18:25.372Z,30.30
2018-08-11T08:19:25.384Z,31.15
2018-08-11T08:20:25.397Z,31.62
2018-08-11T08:21:25.409Z,32.28
2018-08-11T08:22:25.428Z,31.57
2018-08-11T08:23:25.442Z,30.78
2018-08-11T08:24:25.454Z,30.79
2018-08-11T08:25:25.458Z,30.32
2018-08-11T08:26:25.734Z,30.23
2018-08-11T08:27:25.487Z,30.94
2018-08-11T08:28:25.496Z,31.32
2018-08-11T08:29:25.507Z,31.90
2018-08-11T08:30:25.514Z,32.14
2018-08-11T08:31:25.524Z,32.69
2018-08-11T08:32:25.534Z,32.76
2018-08-11T08:33:25.544Z,33.07
2018-08-11T08:34:25.559Z,32.98
2018-08-11T08:35:25.571Z,32.41
2018-08-11T08:36:25.582Z,32.06
2018-08-11T08:37:25.595Z,31.23
2018-08-11T08:38:25.598Z,31.15
2018-08-11T08:39:25.611Z,30.30
2018-08-11T08:40:25.625Z,29.60
2018-08-11T08:41:25.636Z,29.33
2018-08-11T08:42:25.641Z,28.79
2018-08-11T08:43:25.653Z,28.77
2018-08-11T08:44:25.660Z,29.07
2018-08-11T08:45:25.670Z,29.23
2018-08-11T08:46:25.683Z,29.32
2018-08-11T08:47:25.710Z,29.97
2018-08-11T08:48:25.701Z,29.55
2018-08-11T08:49:25.711Z,28.64
2018-08-11T08:50:25.714Z,28.20
2018-08-11T08:51:25.723Z,29.26
2018-08-11T08:52:25.731Z,29.79
2018-08-11T08:53:25.822Z,30.49
2018-08-11T08:54:25.753Z,30.76
2018-08-11T08:55:25.761Z,31.16
2018-08-11T08:56:25.764Z,30.94
2018-08-11T08:57:25.772Z,30.68
2018-08-11T08:58:25.785Z,31.56
2018-08-11T08:59:25.795Z,31.94
2018-08-11T09:00:25.802Z,32.29
2018-08-11T09:01:25.811Z,32.25
2018-08-11T09:02:25.817Z,32.03
2018-08-11T09:03:25.829Z,31.50
2018-08-11T09:04:25.836Z,32.03
2018-08-11T09:05:25.851Z,31.41
2018-08-11T09:06:25.861Z,31.41
2018-08-11T09:07:25.873Z,31.99
2018-08-11T09:08:25.882Z,32.44
2018-08-11T09:09:25.895Z,32.78
2018-08-11T09:10:25.904Z,32.51
2018-08-11T09:11:25.910Z,32.66
2018-08-11T09:12:25.927Z,31.65
2018-08-11T09:13:25.938Z,31.01
2018-08-11T09:14:25.946Z,30.82
2018-08-11T09:15:25.959Z,31.35
2018-08-11T09:16:25.966Z,31.10
2018-08-11T09:17:25.978Z,31.38
2018-08-11T09:18:25.997Z,31.12
2018-08-11T09:19:26.018Z,29.86
2018-08-11T09:20:26.017Z,29.02
2018-08-11T09:21:26.028Z,28.45
2018-08-11T09:22:26.035Z,28.18
2018-08-11T09:23:26.045Z,28.43
2018-08-11T09:24:26.056Z,28.87
2018-08-11T09:25:26.065Z,29.25
2018-08-11T09:26:26.081Z,30.18
2018-08-11T09:27:26.091Z,29.85
2018-08-11T09:28:26.095Z,30.63
2018-08-11T09:29:26.104Z,31.05
2018-08-11T09:30:26.119Z,31.76
2018-08-11T09:31:26.129Z,31.74
2018-08-11T09:32:26.136Z,31.67
2018-08-11T09:33:26.146Z,30.28
2018-08-11T09:34:26.152Z,29.52
2018-08-11T09:35:26.163Z,29.10
2018-08-11T09:36:26.172Z,28.80
2018-08-11T09:37:26.185Z,28.35
2018-08-11T09:38:26.327Z,28.23
2018-08-11T09:39:26.206Z,28.17
2018-08-11T09:40:26.212Z,27.87
2018-08-11T09:41:26.224Z,27.95
2018-08-11T09:42:26.226Z,28.48
2018-08-11T09:43:26.235Z,28.11
2018-08-11T09:44:26.247Z,28.45
2018-08-11T09:45:26.255Z,29.69
2018-08-11T09:46:26.258Z,29.88
2018-08-11T09:47:26.265Z,29.12
2018-08-11T09:48:26.277Z,28.70
2018-08-11T09:49:26.283Z,28.33
2018-08-11T09:50:26.293Z,28.09
2018-08-11T09:51:26.300Z,29.27
2018-08-11T09:52:26.307Z,30.03
2018-08-11T09:53:26.314Z,30.23
2018-08-11T09:54:26.318Z,30.48
2018-08-11T09:55:26.324Z,30.28
2018-08-11T09:56:26.330Z,30.91
2018-08-11T09:57:26.339Z,30.96
2018-08-11T09:58:26.352Z,30.85
2018-08-11T09:59:26.361Z,30.61
2018-08-11T10:00:26.362Z,31.68
2018-08-11T10:01:26.372Z,31.07
2018-08-11T10:02:26.387Z,30.37
2018-08-11T10:03:26.396Z,30.76
2018-08-11T10:04:26.408Z,30.81
2018-08-11T10:05:26.415Z,31.16
2018-08-11T10:06:26.421Z,31.38
2018-08-11T10:07:26.432Z,31.10
2018-08-11T10:08:26.441Z,31.97
2018-08-11T10:09:26.455Z,31.87
2018-08-11T10:10:26.508Z,31.23
2018-08-11T10:11:26.480Z,30.34
2018-08-11T10:12:26.494Z,29.82
2018-08-11T10:13:26.501Z,29.05
2018-08-11T10:14:26.507Z,28.77
2018-08-11T10:15:26.519Z,28.15
2018-08-11T10:16:26.532Z,28.05
2018-08-11T10:17:26.543Z,27.98
2018-08-11T10:18:26.587Z,27.99
2018-08-11T10:19:26.561Z,28.82
2018-08-11T10:20:26.569Z,28.36
2018-08-11T10:21:26.577Z,28.15
2018-08-11T10:22:26.592Z,27.99
2018-08-11T10:23:26.600Z,27.96
2018-08-11T10:24:26.607Z,29.20
2018-08-11T10:25:26.616Z,29.42
2018-08-11T10:26:26.620Z,30.46
2018-08-11T10:27:26.628Z,30.78
2018-08-11T10:28:26.637Z,31.49
2018-08-11T10:29:26.643Z,31.30
2018-08-11T10:30:26.657Z,31.69
2018-08-11T10:31:26.666Z,31.38
2018-08-11T10:32:26.670Z,31.69
2018-08-11T10:33:26.680Z,31.04
2018-08-11T10:34:26.694Z,31.56
2018-08-11T10:35:26.705Z,31.65
2018-08-11T10:36:26.714Z,31.75
2018-08-11T10:37:26.725Z,31.41
2018-08-11T10:38:26.732Z,31.85
2018-08-11T10:39:26.743Z,31.68
2018-08-11T10:40:26.754Z,31.97
2018-08-11T10:41:26.765Z,32.61
2018-08-11T10:42:26.782Z,32.54
2018-08-11T10:43:26.795Z,32.95
2018-08-11T10:44:26.807Z,31.56
2018-08-11T10:45:26.819Z,30.76
2018-08-11T10:46:26.827Z,30.11
2018-08-11T10:47:26.840Z,29.82
2018-08-11T10:48:26.856Z,29.51
2018-08-11T10:49:26.870Z,29.05
2018-08-11T10:50:26.877Z,28.69
2018-08-11T10:51:26.885Z,29.42
2018-08-11T10:52:26.895Z,29.55
2018-08-11T10:53:26.908Z,28.95
2018-08-11T10:54:26.922Z,28.46
2018-08-11T10:55:26.932Z,28.18
2018-08-11T10:56:26.940Z,28.51
2018-08-11T10:57:26.950Z,28.32
2018-08-11T10:58:26.957Z,28.17
2018-08-11T10:59:26.967Z,28.17
2018-08-11T11:00:26.973Z,27.93
2018-08-11T11:01:26.990Z,27.90
2018-08-11T11:02:26.996Z,27.80
2018-08-11T11:03:27.003Z,27.83
2018-08-11T11:04:27.006Z,28.11
2018-08-11T11:05:27.013Z,28.45
2018-08-11T11:06:27.027Z,29.14
2018-08-11T11:07:27.034Z,28.83
2018-08-11T11:08:27.090Z,29.08
2018-08-11T11:09:27.046Z,29.51
2018-08-11T11:10:27.050Z,29.79
2018-08-11T11:11:27.061Z,29.66
2018-08-11T11:12:27.064Z,29.92
2018-08-11T11:13:27.072Z,30.28
2018-08-11T11:14:27.085Z,29.52
2018-08-11T11:15:27.096Z,28.70
2018-08-11T11:16:27.106Z,28.18
2018-08-11T11:17:27.111Z,27.99
2018-08-11T11:18:27.113Z,27.80
2018-08-11T11:19:27.123Z,27.55
2018-08-11T11:20:27.140Z,27.98
2018-08-11T11:21:27.145Z,28.72
2018-08-11T11:22:27.145Z,29.29
2018-08-11T11:23:27.153Z,29.89
2018-08-11T11:24:27.161Z,30.48
2018-08-11T11:25:27.167Z,30.36
2018-08-11T11:26:27.179Z,30.07
2018-08-11T11:27:27.189Z,29.42
2018-08-11T11:28:27.194Z,29.10
2018-08-11T11:29:27.201Z,29.12
2018-08-11T11:30:27.205Z,29.37
2018-08-11T11:31:27.212Z,28.82
2018-08-11T11:32:27.219Z,28.21
2018-08-11T11:33:27.227Z,28.24
2018-08-11T11:34:27.244Z,28.46
2018-08-11T11:35:27.246Z,28.30
2018-08-11T11:36:27.249Z,28.21
2018-08-11T11:37:27.256Z,28.05
2018-08-11T11:38:27.267Z,27.95
2018-08-11T11:39:27.274Z,27.80
2018-08-11T11:40:27.278Z,27.78
2018-08-11T11:41:27.285Z,27.46
2018-08-11T11:42:27.287Z,27.59
2018-08-11T11:43:27.387Z,27.81
2018-08-11T11:44:27.298Z,27.62
2018-08-11T11:45:27.305Z,27.39
2018-08-11T11:46:27.316Z,27.53
2018-08-11T11:47:27.321Z,27.55
2018-08-11T11:48:27.324Z,27.66
2018-08-11T11:49:27.330Z,27.55
2018-08-11T11:50:27.331Z,27.53
2018-08-11T11:51:27.338Z,27.40
2018-08-11T11:52:27.347Z,27.38
2018-08-11T11:53:27.350Z,27.25
2018-08-11T11:54:27.351Z,27.15
2018-08-11T11:55:27.360Z,27.25
2018-08-11T11:56:27.362Z,27.48
2018-08-11T11:57:27.366Z,27.50
2018-08-11T11:58:27.376Z,27.61
2018-08-11T11:59:27.380Z,27.46
2018-08-11T12:00:27.384Z,27.40
2018-08-11T12:01:27.389Z,27.34
2018-08-11T12:02:27.389Z,27.55
2018-08-11T12:03:27.394Z,27.48
2018-08-11T12:04:27.396Z,27.34
2018-08-11T12:05:27.404Z,27.39
2018-08-11T12:06:27.409Z,27.09
2018-08-11T12:07:27.413Z,27.08
2018-08-11T12:08:27.413Z,27.09
2018-08-11T12:09:27.417Z,27.27
2018-08-11T12:10:27.425Z,27.23
2018-08-11T12:11:27.431Z,27.16
2018-08-11T12:12:27.433Z,27.39
2018-08-11T12:13:27.438Z,27.16
2018-08-11T12:14:27.437Z,27.08
2018-08-11T12:15:27.442Z,27.03
2018-08-11T12:16:27.444Z,26.91
2018-08-11T12:17:27.449Z,27.01
2018-08-11T12:18:27.459Z,27.06
2018-08-11T12:19:27.509Z,26.98
2018-08-11T12:20:27.468Z,27.08
2018-08-11T12:21:27.466Z,27.06
2018-08-11T12:22:27.465Z,27.08
2018-08-11T12:23:27.469Z,27.09
2018-08-11T12:24:27.477Z,27.33
2018-08-11T12:25:27.480Z,27.18
2018-08-11T12:26:27.480Z,27.06
2018-08-11T12:27:27.483Z,27.05
2018-08-11T12:28:27.486Z,27.16
2018-08-11T12:29:27.492Z,27.02
2018-08-11T12:30:27.499Z,27.06
2018-08-11T12:31:27.504Z,26.81
2018-08-11T12:32:27.505Z,26.97
2018-08-11T12:33:27.509Z,26.88
2018-08-11T12:34:27.510Z,26.94
2018-08-11T12:35:27.511Z,27.13
2018-08-11T12:36:27.512Z,27.02
2018-08-11T12:37:27.515Z,27.12
2018-08-11T12:38:27.524Z,27.15
2018-08-11T12:39:27.526Z,27.21
2018-08-11T12:40:27.525Z,27.21
2018-08-11T12:41:27.528Z,27.12
2018-08-11T12:42:27.538Z,27.13
2018-08-11T12:43:27.540Z,27.15
2018-08-11T12:44:27.542Z,27.23
2018-08-11T12:45:27.562Z,27.08
2018-08-11T12:46:27.545Z,27.13
2018-08-11T12:47:27.547Z,27.06
2018-08-11T12:48:27.554Z,27.11
2018-08-11T12:49:27.557Z,27.12
2018-08-11T12:50:27.556Z,27.16
2018-08-11T12:51:27.559Z,27.20
2018-08-11T12:52:27.561Z,27.28